createdAt,value
2017-09-30T00:04:36.428Z,23.30
2017-09-30T00:09:39.391Z,24.50
2017-09-30T00:14:43.323Z,19.00
2017-09-30T00:19:47.591Z,23.13
2017-09-30T00:24:50.577Z,27.63
2017-09-30T00:29:54.489Z,24.73
2017-09-30T00:34:57.255Z,26.90
2017-09-30T00:40:01.313Z,31.63
2017-09-30T00:45:08.111Z,44.13
2017-09-30T00:50:11.430Z,38.03
2017-09-30T00:55:24.612Z,38.27
2017-09-30T01:00:31.865Z,46.43
2017-09-30T01:05:39.681Z,49.50
2017-09-30T01:10:48.598Z,64.90
2017-09-30T01:15:53.647Z,66.93
2017-09-30T01:21:02.317Z,71.90
2017-09-30T01:26:05.747Z,56.40
2017-09-30T01:31:09.365Z,80.63
2017-09-30T01:36:12.575Z,62.73
2017-09-30T01:41:15.776Z,59.90
2017-09-30T01:46:19.793Z,64.27
2017-09-30T01:51:24.053Z,60.67
2017-09-30T01:56:28.851Z,69.60
2017-09-30T02:01:32.032Z,70.93
2017-09-30T02:06:34.500Z,56.40
2017-09-30T02:11:44.045Z,67.03
2017-09-30T02:16:46.765Z,67.03
2017-09-30T02:21:49.295Z,62.57
2017-09-30T02:26:52.005Z,70.73
2017-09-30T02:31:54.710Z,67.83
2017-09-30T02:36:57.308Z,67.27
2017-09-30T02:41:59.869Z,66.33
2017-09-30T02:47:02.481Z,81.20
2017-09-30T02:52:05.915Z,73.83
2017-09-30T02:57:08.483Z,70.80
2017-09-30T03:02:11.058Z,71.70
2017-09-30T03:07:13.312Z,72.43
2017-09-30T03:12:15.992Z,76.10
2017-09-30T03:17:18.639Z,74.37
2017-09-30T03:22:21.098Z,77.80
2017-09-30T03:27:23.693Z,67.20
2017-09-30T03:32:25.801Z,70.00
2017-09-30T03:37:30.982Z,66.60
2017-09-30T03:42:34.721Z,73.60
2017-09-30T03:47:37.400Z,70.13
2017-09-30T03:52:40.602Z,71.03
2017-09-30T03:57:42.912Z,65.03
2017-09-30T04:02:45.153Z,51.77
2017-09-30T04:07:47.710Z,45.27
2017-09-30T04:12:50.049Z,59.10
2017-09-30T04:17:52.172Z,69.20
2017-09-30T04:22:54.848Z,79.20
2017-09-30T04:27:57.454Z,99.43
2017-09-30T04:32:59.740Z,116.27
2017-09-30T04:38:02.826Z,107.20
2017-09-30T04:43:05.995Z,118.73
2017-09-30T04:48:08.775Z,141.07
2017-09-30T04:53:11.261Z,139.50
2017-09-30T04:58:13.340Z,120.67
2017-09-30T05:03:15.847Z,123.00
2017-09-30T05:08:18.348Z,118.10
2017-09-30T05:13:20.646Z,142.80
2017-09-30T05:18:23.001Z,130.13
2017-09-30T05:23:25.763Z,124.77
2017-09-30T05:28:29.164Z,133.93
2017-09-30T05:33:37.433Z,128.07
2017-09-30T05:38:40.354Z,131.03
2017-09-30T05:43:42.968Z,118.83
2017-09-30T05:48:46.144Z,100.07
2017-09-30T05:53:49.519Z,99.57
2017-09-30T05:58:52.723Z,121.23
2017-09-30T06:04:02.236Z,104.57
2017-09-30T06:09:04.345Z,94.07
2017-09-30T06:14:06.947Z,89.97
2017-09-30T06:19:10.287Z,92.93
2017-09-30T06:24:12.963Z,63.53
2017-09-30T06:29:15.366Z,59.27
2017-09-30T06:34:18.053Z,60.23
2017-09-30T06:39:20.678Z,46.83
2017-09-30T06:44:24.271Z,50.80
2017-09-30T06:49:26.923Z,48.03
2017-09-30T06:54:31.797Z,51.70
2017-09-30T06:59:34.885Z,66.20
2017-09-30T07:04:39.731Z,48.43
2017-09-30T07:09:46.838Z,45.00
2017-09-30T07:14:51.093Z,40.37
2017-09-30T07:19:57.357Z,44.00
2017-09-30T07:25:01.667Z,37.73
2017-09-30T07:30:04.340Z,33.63
2017-09-30T07:35:08.556Z,28.27
2017-09-30T07:40:10.797Z,50.23
2017-09-30T07:45:13.070Z,24.17
2017-09-30T07:50:15.572Z,26.60
2017-09-30T07:55:18.654Z,31.37
2017-09-30T08:00:21.333Z,32.07
2017-09-30T08:05:23.707Z,30.97
2017-09-30T08:10:26.394Z,30.80
2017-09-30T08:15:29.059Z,29.67
2017-09-30T08:20:31.562Z,34.80
2017-09-30T08:25:34.196Z,34.73
2017-09-30T08:30:36.375Z,38.13
2017-09-30T08:35:39.047Z,41.50
2017-09-30T08:40:41.666Z,37.80
2017-09-30T08:45:45.143Z,35.57
2017-09-30T08:50:47.838Z,32.63
2017-09-30T08:55:51.423Z,30.50
2017-09-30T09:00:54.482Z,32.90
2017-09-30T09:05:58.626Z,34.33
2017-09-30T09:11:02.271Z,41.50
2017-09-30T09:16:06.158Z,35.97
2017-09-30T09:21:09.939Z,40.47
2017-09-30T09:26:13.865Z,37.00
2017-09-30T09:31:17.218Z,36.90
2017-09-30T09:36:21.340Z,37.30
2017-09-30T09:41:25.045Z,33.87
2017-09-30T09:46:28.943Z,33.67
2017-09-30T09:51:32.228Z,39.77
2017-09-30T09:56:35.512Z,33.10
2017-09-30T10:01:37.700Z,34.90
2017-09-30T10:06:42.295Z,33.07
2017-09-30T10:11:45.987Z,41.90
2017-09-30T10:16:52.225Z,40.40
2017-09-30T10:22:00.074Z,32.03
2017-09-30T10:27:04.246Z,39.20
2017-09-30T10:32:07.219Z,40.63
2017-09-30T10:37:10.631Z,30.33
2017-09-30T10:42:13.898Z,28.40
2017-09-30T10:47:16.041Z,32.33
2017-09-30T10:52:18.936Z,26.80
2017-09-30T10:57:21.716Z,32.33
2017-09-30T11:02:24.414Z,19.80
2017-09-30T11:07:27.025Z,27.03
2017-09-30T11:12:29.699Z,31.03
2017-09-30T11:17:32.841Z,20.93
2017-09-30T11:22:35.501Z,24.47
2017-09-30T11:27:37.944Z,24.37
2017-09-30T11:32:40.536Z,25.40
2017-09-30T11:37:44.056Z,25.20
2017-09-30T11:42:47.506Z,27.97
2017-09-30T11:47:50.221Z,22.93
2017-09-30T11:52:52.320Z,23.73
2017-09-30T11:57:55.078Z,22.90
2017-09-30T12:02:59.613Z,31.23
2017-09-30T12:08:04.251Z,24.60
2017-09-30T12:13:06.751Z,19.60
2017-09-30T12:18:09.419Z,31.30
2017-09-30T12:23:12.017Z,20.93
2017-09-30T12:28:14.739Z,22.13
2017-09-30T12:33:19.964Z,20.30
2017-09-30T12:38:23.519Z,23.30
2017-09-30T12:43:26.252Z,27.00
2017-09-30T12:48:28.724Z,24.93
2017-09-30T12:53:31.356Z,25.53
2017-09-30T12:58:34.058Z,20.87
2017-09-30T13:03:36.457Z,22.30
2017-09-30T13:08:39.037Z,26.30
2017-09-30T13:13:41.284Z,26.23
2017-09-30T13:18:43.822Z,34.30
2017-09-30T13:23:46.353Z,22.77
2017-09-30T13:28:48.954Z,41.20
2017-09-30T13:33:51.539Z,39.23
2017-09-30T13:38:54.274Z,18.73
2017-09-30T13:43:56.937Z,16.93
2017-09-30T13:48:59.364Z,25.83
2017-09-30T13:54:02.081Z,16.10
2017-09-30T13:59:04.669Z,20.83
2017-09-30T14:04:07.502Z,23.00
2017-09-30T14:09:09.824Z,28.43
2017-09-30T14:14:12.163Z,36.90
2017-09-30T14:19:14.714Z,28.10
2017-09-30T14:24:18.083Z,25.97
2017-09-30T14:29:20.431Z,18.80
2017-09-30T14:34:23.027Z,21.30
2017-09-30T14:39:25.664Z,32.50
2017-09-30T14:44:28.100Z,22.27
2017-09-30T14:49:30.838Z,26.43
2017-09-30T14:54:33.470Z,36.93
2017-09-30T14:59:36.438Z,22.90
2017-09-30T15:04:39.842Z,22.83
2017-09-30T15:09:42.532Z,28.60
2017-09-30T15:14:45.150Z,23.30
2017-09-30T15:19:47.578Z,25.70
2017-09-30T15:24:49.974Z,21.27
2017-09-30T15:29:52.588Z,28.60
2017-09-30T15:34:55.045Z,23.20
2017-09-30T15:39:57.550Z,25.33
2017-09-30T15:44:59.747Z,26.87
2017-09-30T15:50:02.457Z,24.17
2017-09-30T15:55:05.937Z,24.13
2017-09-30T16:00:08.416Z,27.00
2017-09-30T16:05:14.414Z,23.10
2017-09-30T16:10:17.162Z,17.57
2017-09-30T16:15:19.640Z,16.30
2017-09-30T16:20:22.261Z,7.63
2017-09-30T16:25:26.158Z,10.40
2017-09-30T16:30:32.828Z,16.50
2017-09-30T16:35:41.385Z,8.40
2017-09-30T16:40:44.654Z,6.70
2017-09-30T16:45:48.063Z,8.13
2017-09-30T16:50:50.587Z,6.33
2017-09-30T16:55:53.220Z,5.27
2017-09-30T17:00:55.559Z,6.17
2017-09-30T17:05:57.880Z,8.00
2017-09-30T17:11:01.207Z,8.93
2017-09-30T17:16:03.415Z,6.43
2017-09-30T17:21:06.799Z,10.73
2017-09-30T17:26:10.049Z,8.40
2017-09-30T17:31:12.659Z,18.37
2017-09-30T17:36:15.310Z,7.63
2017-09-30T17:41:17.739Z,10.17
2017-09-30T17:46:27.757Z,9.87
2017-09-30T17:51:34.651Z,11.60
2017-09-30T17:56:42.606Z,8.53
2017-09-30T18:01:48.990Z,6.83
2017-09-30T18:06:51.647Z,10.98
2017-09-30T18:11:55.124Z,12.63
2017-09-30T18:16:58.518Z,7.30
2017-09-30T18:22:01.131Z,6.20
2017-09-30T18:27:03.781Z,10.60
2017-09-30T18:32:06.298Z,21.10
2017-09-30T18:37:09.064Z,16.90
2017-09-30T18:42:11.797Z,10.23
2017-09-30T18:47:14.200Z,16.63
2017-09-30T18:52:16.642Z,7.83
2017-09-30T18:57:19.232Z,13.43
2017-09-30T19:02:21.473Z,16.23
2017-09-30T19:07:23.767Z,14.00
2017-09-30T19:12:32.120Z,14.13
2017-09-30T19:17:36.112Z,23.10
2017-09-30T19:22:44.616Z,16.30
2017-09-30T19:27:47.422Z,15.87
2017-09-30T19:32:49.919Z,16.47
2017-09-30T19:37:53.263Z,15.53
2017-09-30T19:42:55.690Z,19.70
2017-09-30T19:47:58.170Z,13.03
2017-09-30T19:53:00.790Z,14.53
2017-09-30T19:58:03.397Z,10.23
2017-09-30T20:03:06.063Z,10.77
2017-09-30T20:08:08.423Z,6.83
2017-09-30T20:13:10.736Z,11.73
2017-09-30T20:18:14.687Z,20.63
2017-09-30T20:23:17.253Z,16.30
2017-09-30T20:28:19.580Z,14.00
2017-09-30T20:33:22.127Z,13.03
2017-09-30T20:38:24.780Z,9.07
2017-09-30T20:43:27.321Z,9.20
2017-09-30T20:48:30.679Z,16.83
2017-09-30T20:53:32.975Z,15.50
2017-09-30T20:58:35.222Z,17.80
2017-09-30T21:03:38.041Z,14.57
2017-09-30T21:08:40.632Z,16.97
2017-09-30T21:13:44.735Z,19.20
2017-09-30T21:18:48.196Z,16.93
2017-09-30T21:23:50.623Z,16.27
2017-09-30T21:28:52.992Z,18.90
2017-09-30T21:33:55.516Z,17.10
2017-09-30T21:39:05.144Z,20.90
2017-09-30T21:44:07.695Z,22.63
2017-09-30T21:49:10.253Z,25.33
2017-09-30T21:54:12.588Z,27.47
2017-09-30T21:59:15.765Z,27.03
2017-09-30T22:04:19.062Z,27.37
2017-09-30T22:09:21.998Z,27.07
2017-09-30T22:14:24.494Z,24.90
2017-09-30T22:19:27.127Z,27.80
2017-09-30T22:24:30.262Z,26.33
2017-09-30T22:29:32.746Z,25.20
2017-09-30T22:34:35.325Z,28.97
2017-09-30T22:39:37.607Z,24.43
2017-09-30T22:44:39.879Z,23.27
2017-09-30T22:49:42.425Z,28.30
2017-09-30T22:54:44.733Z,27.43
2017-09-30T22:59:47.262Z,23.40
2017-09-30T23:04:49.890Z,22.60
2017-09-30T23:09:52.592Z,27.00
2017-09-30T23:14:55.100Z,27.27
2017-09-30T23:19:58.102Z,29.90
2017-09-30T23:25:00.190Z,29.97
2017-09-30T23:30:02.568Z,31.67
2017-09-30T23:35:05.168Z,25.97
2017-09-30T23:40:07.772Z,26.80
2017-09-30T23:45:10.003Z,31.50
2017-09-30T23:50:12.354Z,32.70
2017-09-30T23:55:15.025Z,34.10
